sensor_id;sensor_type;location;lat;lon;timestamp;P1;durP1;ratioP1;P2;durP2;ratioP2
48042;SDS011;33988;47.992;8.820;2023-06-05T00:00:32;3.78;;;2.75;;
48042;SDS011;33988;47.992;8.820;2023-06-05T00:03:01;6.07;;;3.25;;
48042;SDS011;33988;47.992;8.820;2023-06-05T00:05:28;4.28;;;2.88;;
48042;SDS011;33988;47.992;8.820;2023-06-05T00:07:58;3.17;;;2.60;;
48042;SDS011;33988;47.992;8.820;2023-06-05T00:10:25;3.30;;;2.70;;
48042;SDS011;33988;47.992;8.820;2023-06-05T00:12:54;5.13;;;2.72;;
48042;SDS011;33988;47.992;8.820;2023-06-05T00:15:21;4.13;;;2.78;;
48042;SDS011;33988;47.992;8.820;2023-06-05T00:17:50;3.08;;;2.47;;
48042;SDS011;33988;47.992;8.820;2023-06-05T00:20:18;3.78;;;2.83;;
48042;SDS011;33988;47.992;8.820;2023-06-05T00:22:47;3.40;;;2.78;;
48042;SDS011;33988;47.992;8.820;2023-06-05T00:25:19;4.10;;;2.67;;
48042;SDS011;33988;47.992;8.820;2023-06-05T00:27:46;3.42;;;2.88;;
48042;SDS011;33988;47.992;8.820;2023-06-05T00:30:20;4.38;;;3.50;;
48042;SDS011;33988;47.992;8.820;2023-06-05T00:32:47;4.30;;;2.88;;
48042;SDS011;33988;47.992;8.820;2023-06-05T00:35:16;5.18;;;2.65;;
48042;SDS011;33988;47.992;8.820;2023-06-05T00:37:45;4.07;;;2.85;;
48042;SDS011;33988;47.992;8.820;2023-06-05T00:40:13;4.18;;;3.00;;
48042;SDS011;33988;47.992;8.820;2023-06-05T00:42:40;7.50;;;3.10;;
48042;SDS011;33988;47.992;8.820;2023-06-05T00:45:07;3.70;;;2.88;;
48042;SDS011;33988;47.992;8.820;2023-06-05T00:47:35;4.38;;;3.00;;
48042;SDS011;33988;47.992;8.820;2023-06-05T00:50:02;4.30;;;2.92;;
48042;SDS011;33988;47.992;8.820;2023-06-05T00:52:30;4.40;;;2.47;;
48042;SDS011;33988;47.992;8.820;2023-06-05T00:54:59;3.88;;;2.67;;
48042;SDS011;33988;47.992;8.820;2023-06-05T00:57:28;3.33;;;2.75;;
48042;SDS011;33988;47.992;8.820;2023-06-05T00:59:55;3.85;;;3.08;;
48042;SDS011;33988;47.992;8.820;2023-06-05T01:02:22;4.25;;;3.13;;
48042;SDS011;33988;47.992;8.820;2023-06-05T01:04:53;4.00;;;2.90;;
48042;SDS011;33988;47.992;8.820;2023-06-05T01:07:23;3.17;;;2.45;;
48042;SDS011;33988;47.992;8.820;2023-06-05T01:09:50;4.00;;;2.70;;
48042;SDS011;33988;47.992;8.820;2023-06-05T01:17:42;2.97;;;2.38;;
48042;SDS011;33988;47.992;8.820;2023-06-05T01:20:13;4.28;;;2.75;;
48042;SDS011;33988;47.992;8.820;2023-06-05T01:22:47;3.47;;;2.63;;
48042;SDS011;33988;47.992;8.820;2023-06-05T01:25:22;3.10;;;2.63;;
48042;SDS011;33988;47.992;8.820;2023-06-05T01:30:53;4.82;;;3.00;;
48042;SDS011;33988;47.992;8.820;2023-06-05T01:33:41;3.80;;;3.00;;
48042;SDS011;33988;47.992;8.820;2023-06-05T01:36:16;3.30;;;2.65;;
48042;SDS011;33988;47.992;8.820;2023-06-05T01:38:46;3.85;;;2.70;;
48042;SDS011;33988;47.992;8.820;2023-06-05T01:41:16;3.05;;;2.75;;
48042;SDS011;33988;47.992;8.820;2023-06-05T01:43:45;3.75;;;2.80;;
48042;SDS011;33988;47.992;8.820;2023-06-05T01:46:16;3.50;;;2.50;;
48042;SDS011;33988;47.992;8.820;2023-06-05T01:48:44;3.00;;;2.30;;
48042;SDS011;33988;47.992;8.820;2023-06-05T01:51:12;4.25;;;2.78;;
48042;SDS011;33988;47.992;8.820;2023-06-05T01:53:42;4.63;;;2.80;;
48042;SDS011;33988;47.992;8.820;2023-06-05T01:56:15;4.53;;;3.15;;
48042;SDS011;33988;47.992;8.820;2023-06-05T01:58:48;3.80;;;3.00;;
48042;SDS011;33988;47.992;8.820;2023-06-05T02:01:15;4.40;;;3.05;;
48042;SDS011;33988;47.992;8.820;2023-06-05T02:03:42;4.05;;;2.85;;
48042;SDS011;33988;47.992;8.820;2023-06-05T02:06:14;3.63;;;3.10;;
48042;SDS011;33988;47.992;8.820;2023-06-05T02:08:42;4.88;;;3.22;;
48042;SDS011;33988;47.992;8.820;2023-06-05T02:11:09;3.00;;;2.40;;
48042;SDS011;33988;47.992;8.820;2023-06-05T02:13:39;3.55;;;2.88;;
48042;SDS011;33988;47.992;8.820;2023-06-05T02:16:08;3.95;;;3.28;;
48042;SDS011;33988;47.992;8.820;2023-06-05T02:18:37;4.28;;;3.15;;
48042;SDS011;33988;47.992;8.820;2023-06-05T02:21:04;3.88;;;3.25;;
48042;SDS011;33988;47.992;8.820;2023-06-05T02:23:31;3.30;;;2.53;;
48042;SDS011;33988;47.992;8.820;2023-06-05T02:26:00;3.95;;;2.80;;
48042;SDS011;33988;47.992;8.820;2023-06-05T02:28:30;4.35;;;3.05;;
48042;SDS011;33988;47.992;8.820;2023-06-05T02:30:59;3.63;;;2.90;;
48042;SDS011;33988;47.992;8.820;2023-06-05T02:33:27;3.50;;;2.90;;
48042;SDS011;33988;47.992;8.820;2023-06-05T02:35:54;3.75;;;3.05;;
48042;SDS011;33988;47.992;8.820;2023-06-05T02:38:26;3.72;;;2.92;;
48042;SDS011;33988;47.992;8.820;2023-06-05T02:40:54;11.23;;;3.42;;
48042;SDS011;33988;47.992;8.820;2023-06-05T02:43:21;3.33;;;2.67;;
48042;SDS011;33988;47.992;8.820;2023-06-05T02:45:48;4.45;;;2.83;;
48042;SDS011;33988;47.992;8.820;2023-06-05T02:48:15;4.07;;;2.83;;
48042;SDS011;33988;47.992;8.820;2023-06-05T02:50:45;4.18;;;3.25;;
48042;SDS011;33988;47.992;8.820;2023-06-05T02:53:12;3.28;;;2.97;;
48042;SDS011;33988;47.992;8.820;2023-06-05T02:55:41;4.47;;;2.90;;
48042;SDS011;33988;47.992;8.820;2023-06-05T02:58:09;4.32;;;2.85;;
48042;SDS011;33988;47.992;8.820;2023-06-05T03:00:41;3.65;;;2.72;;
48042;SDS011;33988;47.992;8.820;2023-06-05T03:03:08;3.95;;;2.85;;
48042;SDS011;33988;47.992;8.820;2023-06-05T03:05:39;2.78;;;2.53;;
48042;SDS011;33988;47.992;8.820;2023-06-05T03:08:07;3.28;;;2.78;;
48042;SDS011;33988;47.992;8.820;2023-06-05T03:10:34;3.33;;;2.72;;
48042;SDS011;33988;47.992;8.820;2023-06-05T03:13:01;2.97;;;2.50;;
48042;SDS011;33988;47.992;8.820;2023-06-05T03:15:30;4.13;;;3.03;;
48042;SDS011;33988;47.992;8.820;2023-06-05T03:18:00;3.45;;;2.72;;
48042;SDS011;33988;47.992;8.820;2023-06-05T03:20:27;4.10;;;3.28;;
48042;SDS011;33988;47.992;8.820;2023-06-05T03:22:55;3.88;;;3.03;;
48042;SDS011;33988;47.992;8.820;2023-06-05T03:25:24;4.72;;;3.20;;
48042;SDS011;33988;47.992;8.820;2023-06-05T03:27:52;3.95;;;3.00;;
48042;SDS011;33988;47.992;8.820;2023-06-05T03:30:21;3.35;;;2.80;;
48042;SDS011;33988;47.992;8.820;2023-06-05T03:32:48;4.10;;;3.08;;
48042;SDS011;33988;47.992;8.820;2023-06-05T03:35:18;4.53;;;3.40;;
48042;SDS011;33988;47.992;8.820;2023-06-05T03:37:47;6.80;;;2.85;;
48042;SDS011;33988;47.992;8.820;2023-06-05T03:40:16;4.47;;;3.33;;
48042;SDS011;33988;47.992;8.820;2023-06-05T03:42:45;4.50;;;3.30;;
48042;SDS011;33988;47.992;8.820;2023-06-05T03:45:15;4.90;;;2.92;;
48042;SDS011;33988;47.992;8.820;2023-06-05T03:47:42;6.00;;;3.58;;
48042;SDS011;33988;47.992;8.820;2023-06-05T03:50:11;3.45;;;2.83;;
48042;SDS011;33988;47.992;8.820;2023-06-05T03:52:38;3.40;;;2.75;;
48042;SDS011;33988;47.992;8.820;2023-06-05T03:55:06;3.85;;;2.88;;
48042;SDS011;33988;47.992;8.820;2023-06-05T03:57:36;3.88;;;2.97;;
48042;SDS011;33988;47.992;8.820;2023-06-05T04:00:07;4.18;;;3.03;;
48042;SDS011;33988;47.992;8.820;2023-06-05T04:02:36;4.60;;;3.08;;
48042;SDS011;33988;47.992;8.820;2023-06-05T04:05:03;3.65;;;3.00;;
48042;SDS011;33988;47.992;8.820;2023-06-05T04:07:31;4.53;;;3.13;;
48042;SDS011;33988;47.992;8.820;2023-06-05T04:10:02;6.15;;;2.95;;
48042;SDS011;33988;47.992;8.820;2023-06-05T04:12:30;3.70;;;2.80;;
48042;SDS011;33988;47.992;8.820;2023-06-05T04:14:57;3.72;;;3.15;;
48042;SDS011;33988;47.992;8.820;2023-06-05T04:17:25;3.75;;;3.00;;
48042;SDS011;33988;47.992;8.820;2023-06-05T04:19:52;4.00;;;2.95;;
48042;SDS011;33988;47.992;8.820;2023-06-05T04:22:24;3.97;;;2.83;;
48042;SDS011;33988;47.992;8.820;2023-06-05T04:27:20;3.88;;;2.72;;
48042;SDS011;33988;47.992;8.820;2023-06-05T04:29:47;4.03;;;2.70;;
48042;SDS011;33988;47.992;8.820;2023-06-05T04:32:18;6.05;;;3.28;;
48042;SDS011;33988;47.992;8.820;2023-06-05T04:34:45;5.85;;;3.60;;
48042;SDS011;33988;47.992;8.820;2023-06-05T04:37:13;4.30;;;3.58;;
48042;SDS011;33988;47.992;8.820;2023-06-05T04:39:40;5.15;;;3.50;;
48042;SDS011;33988;47.992;8.820;2023-06-05T04:42:07;5.32;;;3.15;;
48042;SDS011;33988;47.992;8.820;2023-06-05T04:44:41;3.78;;;3.20;;
48042;SDS011;33988;47.992;8.820;2023-06-05T04:47:10;5.50;;;3.47;;
48042;SDS011;33988;47.992;8.820;2023-06-05T04:49:37;4.80;;;3.05;;
48042;SDS011;33988;47.992;8.820;2023-06-05T04:52:04;6.22;;;3.30;;
48042;SDS011;33988;47.992;8.820;2023-06-05T04:54:31;4.07;;;3.45;;
48042;SDS011;33988;47.992;8.820;2023-06-05T04:57:01;5.10;;;3.13;;
48042;SDS011;33988;47.992;8.820;2023-06-05T04:59:30;3.50;;;3.17;;
48042;SDS011;33988;47.992;8.820;2023-06-05T05:01:58;4.03;;;3.27;;
48042;SDS011;33988;47.992;8.820;2023-06-05T05:04:26;7.22;;;3.72;;
48042;SDS011;33988;47.992;8.820;2023-06-05T05:06:58;5.80;;;3.67;;
48042;SDS011;33988;47.992;8.820;2023-06-05T05:09:30;6.38;;;3.88;;
48042;SDS011;33988;47.992;8.820;2023-06-05T05:11:57;5.13;;;3.47;;
48042;SDS011;33988;47.992;8.820;2023-06-05T05:14:27;5.18;;;3.45;;
48042;SDS011;33988;47.992;8.820;2023-06-05T05:16:57;4.78;;;3.60;;
48042;SDS011;33988;47.992;8.820;2023-06-05T05:19:29;5.03;;;3.45;;
48042;SDS011;33988;47.992;8.820;2023-06-05T05:21:56;5.82;;;3.95;;
48042;SDS011;33988;47.992;8.820;2023-06-05T05:24:26;7.90;;;3.83;;
48042;SDS011;33988;47.992;8.820;2023-06-05T05:26:53;6.20;;;3.92;;
48042;SDS011;33988;47.992;8.820;2023-06-05T05:29:21;5.10;;;3.90;;
48042;SDS011;33988;47.992;8.820;2023-06-05T05:31:53;5.60;;;3.58;;
48042;SDS011;33988;47.992;8.820;2023-06-05T05:34:22;6.43;;;4.15;;
48042;SDS011;33988;47.992;8.820;2023-06-05T05:36:54;6.45;;;4.10;;
48042;SDS011;33988;47.992;8.820;2023-06-05T05:39:21;6.80;;;4.03;;
48042;SDS011;33988;47.992;8.820;2023-06-05T05:41:48;8.00;;;4.15;;
48042;SDS011;33988;47.992;8.820;2023-06-05T05:44:17;6.25;;;4.93;;
48042;SDS011;33988;47.992;8.820;2023-06-05T05:46:46;6.68;;;4.13;;
48042;SDS011;33988;47.992;8.820;2023-06-05T05:49:16;4.82;;;3.90;;
48042;SDS011;33988;47.992;8.820;2023-06-05T05:51:46;7.10;;;4.55;;
48042;SDS011;33988;47.992;8.820;2023-06-05T05:54:15;7.32;;;4.20;;
48042;SDS011;33988;47.992;8.820;2023-06-05T05:56:42;14.38;;;4.05;;
48042;SDS011;33988;47.992;8.820;2023-06-05T05:59:13;6.45;;;3.97;;
48042;SDS011;33988;47.992;8.820;2023-06-05T06:01:40;6.60;;;4.30;;
48042;SDS011;33988;47.992;8.820;2023-06-05T06:04:09;5.78;;;4.35;;
48042;SDS011;33988;47.992;8.820;2023-06-05T06:06:36;5.70;;;4.35;;
48042;SDS011;33988;47.992;8.820;2023-06-05T06:09:06;5.22;;;3.92;;
48042;SDS011;33988;47.992;8.820;2023-06-05T06:11:41;6.47;;;3.95;;
48042;SDS011;33988;47.992;8.820;2023-06-05T06:14:12;6.60;;;4.05;;
48042;SDS011;33988;47.992;8.820;2023-06-05T06:16:39;6.88;;;4.10;;
48042;SDS011;33988;47.992;8.820;2023-06-05T06:19:09;5.68;;;4.10;;
48042;SDS011;33988;47.992;8.820;2023-06-05T06:21:42;6.88;;;4.80;;
48042;SDS011;33988;47.992;8.820;2023-06-05T06:24:14;6.55;;;4.10;;
48042;SDS011;33988;47.992;8.820;2023-06-05T06:26:42;10.05;;;4.47;;
48042;SDS011;33988;47.992;8.820;2023-06-05T06:29:09;9.93;;;5.15;;
48042;SDS011;33988;47.992;8.820;2023-06-05T06:31:38;6.85;;;4.78;;
48042;SDS011;33988;47.992;8.820;2023-06-05T06:34:08;8.50;;;5.25;;
48042;SDS011;33988;47.992;8.820;2023-06-05T06:36:39;6.10;;;4.38;;
48042;SDS011;33988;47.992;8.820;2023-06-05T06:39:06;7.03;;;5.35;;
48042;SDS011;33988;47.992;8.820;2023-06-05T06:41:38;6.35;;;4.55;;
48042;SDS011;33988;47.992;8.820;2023-06-05T06:44:05;7.80;;;5.03;;
48042;SDS011;33988;47.992;8.820;2023-06-05T06:46:32;8.05;;;4.88;;
48042;SDS011;33988;47.992;8.820;2023-06-05T06:49:02;7.32;;;5.20;;
48042;SDS011;33988;47.992;8.820;2023-06-05T06:51:33;6.57;;;4.93;;
48042;SDS011;33988;47.992;8.820;2023-06-05T06:54:00;9.80;;;5.10;;
48042;SDS011;33988;47.992;8.820;2023-06-05T06:56:29;7.88;;;5.22;;
48042;SDS011;33988;47.992;8.820;2023-06-05T06:59:00;7.00;;;4.60;;
48042;SDS011;33988;47.992;8.820;2023-06-05T07:01:28;6.05;;;4.70;;
48042;SDS011;33988;47.992;8.820;2023-06-05T07:03:58;7.32;;;4.50;;
48042;SDS011;33988;47.992;8.820;2023-06-05T07:06:27;7.65;;;5.47;;
48042;SDS011;33988;47.992;8.820;2023-06-05T07:08:56;6.90;;;5.57;;
48042;SDS011;33988;47.992;8.820;2023-06-05T07:11:25;8.70;;;5.28;;
48042;SDS011;33988;47.992;8.820;2023-06-05T07:13:53;6.85;;;4.68;;
48042;SDS011;33988;47.992;8.820;2023-06-05T07:16:22;10.32;;;5.00;;
48042;SDS011;33988;47.992;8.820;2023-06-05T07:18:49;6.78;;;4.78;;
48042;SDS011;33988;47.992;8.820;2023-06-05T07:21:19;5.65;;;4.50;;
48042;SDS011;33988;47.992;8.820;2023-06-05T07:23:50;6.10;;;4.50;;
48042;SDS011;33988;47.992;8.820;2023-06-05T07:28:47;5.05;;;3.65;;
48042;SDS011;33988;47.992;8.820;2023-06-05T07:31:15;5.10;;;3.90;;
48042;SDS011;33988;47.992;8.820;2023-06-05T07:33:43;5.35;;;3.55;;
48042;SDS011;33988;47.992;8.820;2023-06-05T07:36:13;6.68;;;4.00;;
48042;SDS011;33988;47.992;8.820;2023-06-05T07:38:41;6.28;;;4.03;;
48042;SDS011;33988;47.992;8.820;2023-06-05T07:41:08;5.03;;;3.88;;
48042;SDS011;33988;47.992;8.820;2023-06-05T07:43:37;7.25;;;3.55;;
48042;SDS011;33988;47.992;8.820;2023-06-05T07:46:08;4.18;;;3.28;;
48042;SDS011;33988;47.992;8.820;2023-06-05T07:48:35;4.95;;;3.70;;
48042;SDS011;33988;47.992;8.820;2023-06-05T07:51:04;4.68;;;3.47;;
48042;SDS011;33988;47.992;8.820;2023-06-05T07:53:35;3.73;;;3.27;;
48042;SDS011;33988;47.992;8.820;2023-06-05T07:56:02;4.55;;;3.25;;
48042;SDS011;33988;47.992;8.820;2023-06-05T07:58:32;4.05;;;3.22;;
48042;SDS011;33988;47.992;8.820;2023-06-05T08:01:01;4.43;;;3.17;;
48042;SDS011;33988;47.992;8.820;2023-06-05T08:03:33;4.70;;;3.25;;
48042;SDS011;33988;47.992;8.820;2023-06-05T08:06:01;6.50;;;3.17;;
48042;SDS011;33988;47.992;8.820;2023-06-05T08:08:28;3.85;;;3.30;;
48042;SDS011;33988;47.992;8.820;2023-06-05T08:10:56;5.07;;;3.22;;
48042;SDS011;33988;47.992;8.820;2023-06-05T08:13:23;4.47;;;3.20;;
48042;SDS011;33988;47.992;8.820;2023-06-05T08:15:50;3.33;;;2.70;;
48042;SDS011;33988;47.992;8.820;2023-06-05T08:18:19;3.58;;;3.03;;
48042;SDS011;33988;47.992;8.820;2023-06-05T08:20:48;3.60;;;2.95;;
48042;SDS011;33988;47.992;8.820;2023-06-05T08:23:20;3.05;;;2.75;;
48042;SDS011;33988;47.992;8.820;2023-06-05T08:25:49;3.10;;;2.72;;
48042;SDS011;33988;47.992;8.820;2023-06-05T08:28:21;5.10;;;2.58;;
48042;SDS011;33988;47.992;8.820;2023-06-05T08:30:48;5.05;;;3.42;;
48042;SDS011;33988;47.992;8.820;2023-06-05T08:33:15;5.03;;;2.83;;
48042;SDS011;33988;47.992;8.820;2023-06-05T08:35:50;3.53;;;3.13;;
48042;SDS011;33988;47.992;8.820;2023-06-05T08:38:17;3.33;;;2.78;;
48042;SDS011;33988;47.992;8.820;2023-06-05T08:40:44;3.42;;;2.80;;
48042;SDS011;33988;47.992;8.820;2023-06-05T08:43:16;6.03;;;2.58;;
48042;SDS011;33988;47.992;8.820;2023-06-05T08:45:46;4.38;;;3.08;;
48042;SDS011;33988;47.992;8.820;2023-06-05T08:48:19;3.60;;;3.08;;
48042;SDS011;33988;47.992;8.820;2023-06-05T08:50:53;2.45;;;2.25;;
48042;SDS011;33988;47.992;8.820;2023-06-05T08:53:24;4.93;;;2.97;;
48042;SDS011;33988;47.992;8.820;2023-06-05T08:56:00;3.47;;;3.00;;
48042;SDS011;33988;47.992;8.820;2023-06-05T08:58:28;4.70;;;3.20;;
48042;SDS011;33988;47.992;8.820;2023-06-05T09:00:56;4.72;;;2.63;;
48042;SDS011;33988;47.992;8.820;2023-06-05T09:03:23;4.55;;;2.90;;
48042;SDS011;33988;47.992;8.820;2023-06-05T09:05:51;3.20;;;2.83;;
48042;SDS011;33988;47.992;8.820;2023-06-05T09:08:27;5.18;;;3.10;;
48042;SDS011;33988;47.992;8.820;2023-06-05T09:13:57;5.07;;;3.00;;
48042;SDS011;33988;47.992;8.820;2023-06-05T09:19:09;3.95;;;2.97;;
48042;SDS011;33988;47.992;8.820;2023-06-05T09:21:38;4.13;;;2.67;;
48042;SDS011;33988;47.992;8.820;2023-06-05T09:26:52;3.50;;;2.40;;
48042;SDS011;33988;47.992;8.820;2023-06-05T09:31:55;3.83;;;2.88;;
48042;SDS011;33988;47.992;8.820;2023-06-05T09:34:24;3.67;;;3.17;;
48042;SDS011;33988;47.992;8.820;2023-06-05T09:37:07;3.17;;;2.78;;
48042;SDS011;33988;47.992;8.820;2023-06-05T09:39:37;4.75;;;2.97;;
48042;SDS011;33988;47.992;8.820;2023-06-05T09:42:06;3.78;;;2.75;;
48042;SDS011;33988;47.992;8.820;2023-06-05T09:44:35;2.80;;;2.60;;
48042;SDS011;33988;47.992;8.820;2023-06-05T09:47:05;4.30;;;2.85;;
48042;SDS011;33988;47.992;8.820;2023-06-05T09:52:08;3.30;;;3.00;;
48042;SDS011;33988;47.992;8.820;2023-06-05T09:54:39;4.90;;;2.83;;
48042;SDS011;33988;47.992;8.820;2023-06-05T09:57:11;4.40;;;2.75;;
48042;SDS011;33988;47.992;8.820;2023-06-05T10:02:27;3.13;;;2.83;;
48042;SDS011;33988;47.992;8.820;2023-06-05T10:05:00;2.97;;;2.67;;
48042;SDS011;33988;47.992;8.820;2023-06-05T10:07:33;4.47;;;3.10;;
48042;SDS011;33988;47.992;8.820;2023-06-05T10:10:03;3.70;;;2.85;;
48042;SDS011;33988;47.992;8.820;2023-06-05T10:12:34;3.85;;;3.08;;
48042;SDS011;33988;47.992;8.820;2023-06-05T10:15:02;4.68;;;3.30;;
48042;SDS011;33988;47.992;8.820;2023-06-05T10:17:32;3.53;;;3.05;;
48042;SDS011;33988;47.992;8.820;2023-06-05T10:20:08;5.70;;;3.00;;
48042;SDS011;33988;47.992;8.820;2023-06-05T10:22:42;3.17;;;2.65;;
48042;SDS011;33988;47.992;8.820;2023-06-05T10:25:13;3.08;;;2.65;;
48042;SDS011;33988;47.992;8.820;2023-06-05T10:39:55;3.47;;;3.08;;
48042;SDS011;33988;47.992;8.820;2023-06-05T10:42:28;2.97;;;2.60;;
48042;SDS011;33988;47.992;8.820;2023-06-05T10:44:59;4.35;;;2.75;;
48042;SDS011;33988;47.992;8.820;2023-06-05T10:52:42;3.22;;;2.92;;
48042;SDS011;33988;47.992;8.820;2023-06-05T10:55:13;2.95;;;2.70;;
48042;SDS011;33988;47.992;8.820;2023-06-05T11:03:53;3.88;;;3.05;;
48042;SDS011;33988;47.992;8.820;2023-06-05T11:06:24;3.65;;;3.00;;
48042;SDS011;33988;47.992;8.820;2023-06-05T11:14:48;6.97;;;3.10;;
48042;SDS011;33988;47.992;8.820;2023-06-05T11:20:02;3.13;;;2.53;;
48042;SDS011;33988;47.992;8.820;2023-06-05T11:27:51;4.35;;;2.53;;
48042;SDS011;33988;47.992;8.820;2023-06-05T11:30:23;3.85;;;3.08;;
48042;SDS011;33988;47.992;8.820;2023-06-05T11:33:18;3.60;;;2.85;;
48042;SDS011;33988;47.992;8.820;2023-06-05T11:35:48;3.95;;;2.67;;
48042;SDS011;33988;47.992;8.820;2023-06-05T11:38:17;3.28;;;2.80;;
48042;SDS011;33988;47.992;8.820;2023-06-05T11:40:49;3.03;;;2.58;;
48042;SDS011;33988;47.992;8.820;2023-06-05T11:43:17;3.30;;;2.78;;
48042;SDS011;33988;47.992;8.820;2023-06-05T11:48:21;4.30;;;3.08;;
48042;SDS011;33988;47.992;8.820;2023-06-05T11:50:53;3.30;;;2.95;;
48042;SDS011;33988;47.992;8.820;2023-06-05T11:53:25;3.33;;;3.03;;
48042;SDS011;33988;47.992;8.820;2023-06-05T11:55:53;3.75;;;3.10;;
48042;SDS011;33988;47.992;8.820;2023-06-05T11:58:35;3.35;;;3.05;;
48042;SDS011;33988;47.992;8.820;2023-06-05T12:03:45;2.70;;;2.50;;
48042;SDS011;33988;47.992;8.820;2023-06-05T12:06:16;3.30;;;2.75;;
48042;SDS011;33988;47.992;8.820;2023-06-05T12:08:44;3.38;;;2.70;;
48042;SDS011;33988;47.992;8.820;2023-06-05T12:13:51;5.05;;;2.67;;
48042;SDS011;33988;47.992;8.820;2023-06-05T12:16:32;3.10;;;2.72;;
48042;SDS011;33988;47.992;8.820;2023-06-05T12:19:01;3.90;;;3.13;;
48042;SDS011;33988;47.992;8.820;2023-06-05T12:21:43;3.33;;;3.00;;
48042;SDS011;33988;47.992;8.820;2023-06-05T12:24:25;3.60;;;3.17;;
48042;SDS011;33988;47.992;8.820;2023-06-05T12:26:56;2.90;;;2.60;;
48042;SDS011;33988;47.992;8.820;2023-06-05T12:29:31;3.40;;;2.75;;
48042;SDS011;33988;47.992;8.820;2023-06-05T12:32:19;3.25;;;2.75;;
48042;SDS011;33988;47.992;8.820;2023-06-05T12:34:54;3.42;;;2.47;;
48042;SDS011;33988;47.992;8.820;2023-06-05T12:37:32;3.03;;;2.78;;
48042;SDS011;33988;47.992;8.820;2023-06-05T12:40:04;3.03;;;2.72;;
48042;SDS011;33988;47.992;8.820;2023-06-05T12:42:41;3.63;;;2.80;;
48042;SDS011;33988;47.992;8.820;2023-06-05T12:45:12;3.30;;;2.75;;
48042;SDS011;33988;47.992;8.820;2023-06-05T12:50:09;3.30;;;2.20;;
48042;SDS011;33988;47.992;8.820;2023-06-05T12:52:39;3.05;;;2.75;;
48042;SDS011;33988;47.992;8.820;2023-06-05T12:55:08;2.78;;;2.53;;
48042;SDS011;33988;47.992;8.820;2023-06-05T12:57:37;3.55;;;3.10;;
48042;SDS011;33988;47.992;8.820;2023-06-05T13:00:07;3.30;;;2.92;;
48042;SDS011;33988;47.992;8.820;2023-06-05T13:02:41;4.05;;;3.03;;
48042;SDS011;33988;47.992;8.820;2023-06-05T13:05:14;2.85;;;2.60;;
48042;SDS011;33988;47.992;8.820;2023-06-05T13:07:41;3.95;;;2.85;;
48042;SDS011;33988;47.992;8.820;2023-06-05T13:10:09;3.55;;;2.95;;
48042;SDS011;33988;47.992;8.820;2023-06-05T13:12:39;3.25;;;2.83;;
48042;SDS011;33988;47.992;8.820;2023-06-05T13:15:06;3.50;;;2.72;;
48042;SDS011;33988;47.992;8.820;2023-06-05T13:17:34;3.58;;;2.78;;
48042;SDS011;33988;47.992;8.820;2023-06-05T13:20:04;4.07;;;3.30;;
48042;SDS011;33988;47.992;8.820;2023-06-05T13:22:35;3.20;;;2.90;;
48042;SDS011;33988;47.992;8.820;2023-06-05T13:25:05;4.90;;;3.25;;
48042;SDS011;33988;47.992;8.820;2023-06-05T13:27:34;4.40;;;2.75;;
48042;SDS011;33988;47.992;8.820;2023-06-05T13:30:02;3.25;;;2.80;;
48042;SDS011;33988;47.992;8.820;2023-06-05T13:32:32;4.10;;;3.03;;
48042;SDS011;33988;47.992;8.820;2023-06-05T13:35:05;4.80;;;3.58;;
48042;SDS011;33988;47.992;8.820;2023-06-05T13:37:36;7.10;;;2.72;;
48042;SDS011;33988;47.992;8.820;2023-06-05T13:40:04;3.00;;;2.35;;
48042;SDS011;33988;47.992;8.820;2023-06-05T13:42:32;2.85;;;2.50;;
48042;SDS011;33988;47.992;8.820;2023-06-05T13:45:00;3.08;;;2.78;;
48042;SDS011;33988;47.992;8.820;2023-06-05T13:47:27;3.45;;;2.90;;
48042;SDS011;33988;47.992;8.820;2023-06-05T13:49:53;6.05;;;3.10;;
48042;SDS011;33988;47.992;8.820;2023-06-05T13:52:21;6.32;;;2.67;;
48042;SDS011;33988;47.992;8.820;2023-06-05T13:54:48;3.42;;;2.78;;
48042;SDS011;33988;47.992;8.820;2023-06-05T13:57:14;2.83;;;2.60;;
48042;SDS011;33988;47.992;8.820;2023-06-05T13:59:44;3.85;;;3.15;;
48042;SDS011;33988;47.992;8.820;2023-06-05T14:02:11;3.33;;;3.03;;
48042;SDS011;33988;47.992;8.820;2023-06-05T14:04:38;3.17;;;2.88;;
48042;SDS011;33988;47.992;8.820;2023-06-05T14:07:05;7.18;;;2.88;;
48042;SDS011;33988;47.992;8.820;2023-06-05T14:09:33;3.25;;;2.75;;
48042;SDS011;33988;47.992;8.820;2023-06-05T14:12:04;3.40;;;3.10;;
48042;SDS011;33988;47.992;8.820;2023-06-05T14:14:32;5.07;;;3.05;;
48042;SDS011;33988;47.992;8.820;2023-06-05T14:17:02;4.13;;;3.10;;
48042;SDS011;33988;47.992;8.820;2023-06-05T14:19:29;4.25;;;3.30;;
48042;SDS011;33988;47.992;8.820;2023-06-05T14:21:56;2.83;;;2.47;;
48042;SDS011;33988;47.992;8.820;2023-06-05T14:24:23;3.60;;;2.92;;
48042;SDS011;33988;47.992;8.820;2023-06-05T14:26:50;3.47;;;3.13;;
48042;SDS011;33988;47.992;8.820;2023-06-05T14:31:48;4.32;;;2.75;;
48042;SDS011;33988;47.992;8.820;2023-06-05T14:34:15;3.45;;;3.05;;
48042;SDS011;33988;47.992;8.820;2023-06-05T14:36:42;6.35;;;3.28;;
48042;SDS011;33988;47.992;8.820;2023-06-05T14:39:16;9.77;;;3.58;;
48042;SDS011;33988;47.992;8.820;2023-06-05T14:41:45;3.40;;;2.85;;
48042;SDS011;33988;47.992;8.820;2023-06-05T14:44:12;3.38;;;2.80;;
48042;SDS011;33988;47.992;8.820;2023-06-05T14:46:48;3.85;;;3.13;;
48042;SDS011;33988;47.992;8.820;2023-06-05T14:49:19;3.60;;;3.22;;
48042;SDS011;33988;47.992;8.820;2023-06-05T14:51:49;3.43;;;3.10;;
48042;SDS011;33988;47.992;8.820;2023-06-05T14:54:17;6.15;;;3.28;;
48042;SDS011;33988;47.992;8.820;2023-06-05T14:56:44;4.07;;;3.10;;
48042;SDS011;33988;47.992;8.820;2023-06-05T14:59:13;4.03;;;2.78;;
48042;SDS011;33988;47.992;8.820;2023-06-05T15:01:52;3.40;;;3.10;;
48042;SDS011;33988;47.992;8.820;2023-06-05T15:04:22;4.43;;;3.25;;
48042;SDS011;33988;47.992;8.820;2023-06-05T15:06:51;4.10;;;3.10;;
48042;SDS011;33988;47.992;8.820;2023-06-05T15:09:20;3.60;;;2.70;;
48042;SDS011;33988;47.992;8.820;2023-06-05T15:11:49;6.13;;;3.33;;
48042;SDS011;33988;47.992;8.820;2023-06-05T15:14:17;3.30;;;2.90;;
48042;SDS011;33988;47.992;8.820;2023-06-05T15:16:44;3.92;;;3.00;;
48042;SDS011;33988;47.992;8.820;2023-06-05T15:19:12;3.17;;;2.88;;
48042;SDS011;33988;47.992;8.820;2023-06-05T15:21:39;4.22;;;3.60;;
48042;SDS011;33988;47.992;8.820;2023-06-05T15:24:06;3.28;;;2.97;;
48042;SDS011;33988;47.992;8.820;2023-06-05T15:26:33;5.55;;;2.70;;
48042;SDS011;33988;47.992;8.820;2023-06-05T15:29:00;3.40;;;3.10;;
48042;SDS011;33988;47.992;8.820;2023-06-05T15:31:27;2.90;;;2.70;;
48042;SDS011;33988;47.992;8.820;2023-06-05T15:33:54;4.47;;;3.00;;
48042;SDS011;33988;47.992;8.820;2023-06-05T15:36:21;5.35;;;4.18;;
48042;SDS011;33988;47.992;8.820;2023-06-05T15:38:48;3.42;;;3.13;;
48042;SDS011;33988;47.992;8.820;2023-06-05T15:41:18;3.97;;;2.95;;
48042;SDS011;33988;47.992;8.820;2023-06-05T15:43:47;3.83;;;3.33;;
48042;SDS011;33988;47.992;8.820;2023-06-05T15:46:15;4.05;;;3.28;;
48042;SDS011;33988;47.992;8.820;2023-06-05T15:48:42;5.47;;;3.42;;
48042;SDS011;33988;47.992;8.820;2023-06-05T15:51:08;3.40;;;3.10;;
48042;SDS011;33988;47.992;8.820;2023-06-05T15:53:40;3.58;;;3.10;;
48042;SDS011;33988;47.992;8.820;2023-06-05T15:56:23;4.95;;;3.05;;
48042;SDS011;33988;47.992;8.820;2023-06-05T15:58:54;3.83;;;3.08;;
48042;SDS011;33988;47.992;8.820;2023-06-05T16:01:21;4.10;;;3.30;;
48042;SDS011;33988;47.992;8.820;2023-06-05T16:03:50;6.78;;;3.22;;
48042;SDS011;33988;47.992;8.820;2023-06-05T16:06:18;5.28;;;3.45;;
48042;SDS011;33988;47.992;8.820;2023-06-05T16:08:46;3.53;;;3.03;;
48042;SDS011;33988;47.992;8.820;2023-06-05T16:11:15;4.18;;;3.00;;
48042;SDS011;33988;47.992;8.820;2023-06-05T16:13:42;3.60;;;2.88;;
48042;SDS011;33988;47.992;8.820;2023-06-05T16:16:11;5.40;;;3.13;;
48042;SDS011;33988;47.992;8.820;2023-06-05T16:18:38;3.42;;;3.13;;
48042;SDS011;33988;47.992;8.820;2023-06-05T16:21:07;5.10;;;3.20;;